sensor_id;sensor_type;location;lat;lon;timestamp;temperature;humidity
78455;SHT31;67751;51.986;5.696;2023-09-19T00:00:59;17.6;74.7
78455;SHT31;67751;51.986;5.696;2023-09-19T00:03:29;17.6;75.2
78455;SHT31;67751;51.986;5.696;2023-09-19T00:06:01;17.6;75.2
78455;SHT31;67751;51.986;5.696;2023-09-19T00:08:32;17.5;75.5
78455;SHT31;67751;51.986;5.696;2023-09-19T00:11:03;17.5;75.5
78455;SHT31;67751;51.986;5.696;2023-09-19T00:13:33;17.5;75.7
78455;SHT31;67751;51.986;5.696;2023-09-19T00:16:08;17.5;76.1
78455;SHT31;67751;51.986;5.696;2023-09-19T00:18:38;17.5;76.2
78455;SHT31;67751;51.986;5.696;2023-09-19T00:21:10;17.5;76.3
78455;SHT31;67751;51.986;5.696;2023-09-19T00:23:39;17.5;76.3
78455;SHT31;67751;51.986;5.696;2023-09-19T00:26:10;17.5;76.2
78455;SHT31;67751;51.986;5.696;2023-09-19T00:28:40;17.5;76.5
78455;SHT31;67751;51.986;5.696;2023-09-19T00:31:10;17.5;76.3
78455;SHT31;67751;51.986;5.696;2023-09-19T00:33:39;17.5;76.3
78455;SHT31;67751;51.986;5.696;2023-09-19T00:36:10;17.5;76.7
78455;SHT31;67751;51.986;5.696;2023-09-19T00:38:39;17.5;76.7
78455;SHT31;67751;51.986;5.696;2023-09-19T00:41:12;17.5;76.8
78455;SHT31;67751;51.986;5.696;2023-09-19T00:43:42;17.5;76.9
78455;SHT31;67751;51.986;5.696;2023-09-19T00:46:11;17.5;76.8
78455;SHT31;67751;51.986;5.696;2023-09-19T00:48:42;17.5;77.1
78455;SHT31;67751;51.986;5.696;2023-09-19T00:51:13;17.5;77.1
78455;SHT31;67751;51.986;5.696;2023-09-19T00:53:46;17.6;77.4
78455;SHT31;67751;51.986;5.696;2023-09-19T00:56:16;17.6;77.3
78455;SHT31;67751;51.986;5.696;2023-09-19T00:58:47;17.6;77.3
78455;SHT31;67751;51.986;5.696;2023-09-19T01:01:18;17.6;77.3
78455;SHT31;67751;51.986;5.696;2023-09-19T01:03:50;17.6;77.5
78455;SHT31;67751;51.986;5.696;2023-09-19T01:06:20;17.6;77.3
78455;SHT31;67751;51.986;5.696;2023-09-19T01:08:50;17.6;77.2
78455;SHT31;67751;51.986;5.696;2023-09-19T01:11:31;17.6;77.3
78455;SHT31;67751;51.986;5.696;2023-09-19T01:14:14;17.6;77.2
78455;SHT31;67751;51.986;5.696;2023-09-19T01:16:56;17.6;77.2
78455;SHT31;67751;51.986;5.696;2023-09-19T01:20:11;17.6;77.2
78455;SHT31;67751;51.986;5.696;2023-09-19T01:22:51;17.6;77.1
78455;SHT31;67751;51.986;5.696;2023-09-19T01:25:47;17.6;77.0
78455;SHT31;67751;51.986;5.696;2023-09-19T01:28:32;17.6;77.1
78455;SHT31;67751;51.986;5.696;2023-09-19T01:31:10;17.6;77.3
78455;SHT31;67751;51.986;5.696;2023-09-19T01:33:58;17.6;77.1
78455;SHT31;67751;51.986;5.696;2023-09-19T01:36:30;17.6;77.5
78455;SHT31;67751;51.986;5.696;2023-09-19T01:39:04;17.6;77.1
78455;SHT31;67751;51.986;5.696;2023-09-19T01:42:04;17.6;77.1
78455;SHT31;67751;51.986;5.696;2023-09-19T01:44:48;17.5;76.6
78455;SHT31;67751;51.986;5.696;2023-09-19T01:47:31;17.5;76.5
78455;SHT31;67751;51.986;5.696;2023-09-19T01:50:15;17.5;75.7
78455;SHT31;67751;51.986;5.696;2023-09-19T01:52:56;17.5;76.3
78455;SHT31;67751;51.986;5.696;2023-09-19T01:55:30;17.5;75.8
78455;SHT31;67751;51.986;5.696;2023-09-19T01:58:07;17.4;74.8
78455;SHT31;67751;51.986;5.696;2023-09-19T02:00:41;17.4;74.9
78455;SHT31;67751;51.986;5.696;2023-09-19T02:03:12;17.4;74.8
78455;SHT31;67751;51.986;5.696;2023-09-19T02:05:48;17.3;74.9
78455;SHT31;67751;51.986;5.696;2023-09-19T02:08:19;17.3;74.9
78455;SHT31;67751;51.986;5.696;2023-09-19T02:10:53;17.3;74.8
78455;SHT31;67751;51.986;5.696;2023-09-19T02:13:23;17.3;74.9
78455;SHT31;67751;51.986;5.696;2023-09-19T02:15:55;17.2;75.0
78455;SHT31;67751;51.986;5.696;2023-09-19T02:18:25;17.2;74.9
78455;SHT31;67751;51.986;5.696;2023-09-19T02:20:56;17.2;75.0
78455;SHT31;67751;51.986;5.696;2023-09-19T02:23:26;17.2;74.9
78455;SHT31;67751;51.986;5.696;2023-09-19T02:25:57;17.1;75.0
78455;SHT31;67751;51.986;5.696;2023-09-19T02:28:27;17.1;74.7
78455;SHT31;67751;51.986;5.696;2023-09-19T02:30:59;17.1;74.5
78455;SHT31;67751;51.986;5.696;2023-09-19T02:33:29;17.1;74.6
78455;SHT31;67751;51.986;5.696;2023-09-19T02:36:00;17.0;74.9
78455;SHT31;67751;51.986;5.696;2023-09-19T02:38:31;17.0;74.2
78455;SHT31;67751;51.986;5.696;2023-09-19T02:41:01;17.0;73.7
78455;SHT31;67751;51.986;5.696;2023-09-19T02:43:31;17.0;73.8
78455;SHT31;67751;51.986;5.696;2023-09-19T02:46:01;17.0;73.7
78455;SHT31;67751;51.986;5.696;2023-09-19T02:48:31;17.0;73.5
78455;SHT31;67751;51.986;5.696;2023-09-19T02:51:02;16.9;73.9
78455;SHT31;67751;51.986;5.696;2023-09-19T02:53:33;16.9;73.8
78455;SHT31;67751;51.986;5.696;2023-09-19T02:56:03;16.9;74.2
78455;SHT31;67751;51.986;5.696;2023-09-19T02:58:33;16.9;73.9
78455;SHT31;67751;51.986;5.696;2023-09-19T03:01:09;16.8;74.1
78455;SHT31;67751;51.986;5.696;2023-09-19T03:03:40;16.8;73.6
78455;SHT31;67751;51.986;5.696;2023-09-19T03:06:11;16.8;74.1
78455;SHT31;67751;51.986;5.696;2023-09-19T03:08:42;16.8;73.3
78455;SHT31;67751;51.986;5.696;2023-09-19T03:11:12;16.7;73.6
78455;SHT31;67751;51.986;5.696;2023-09-19T03:13:43;16.7;73.3
78455;SHT31;67751;51.986;5.696;2023-09-19T03:16:13;16.7;73.6
78455;SHT31;67751;51.986;5.696;2023-09-19T03:18:44;16.6;71.9
78455;SHT31;67751;51.986;5.696;2023-09-19T03:21:15;16.6;73.2
78455;SHT31;67751;51.986;5.696;2023-09-19T03:23:45;16.6;73.1
78455;SHT31;67751;51.986;5.696;2023-09-19T03:26:14;16.6;73.4
78455;SHT31;67751;51.986;5.696;2023-09-19T03:28:44;16.5;73.6
78455;SHT31;67751;51.986;5.696;2023-09-19T03:31:14;16.5;73.6
78455;SHT31;67751;51.986;5.696;2023-09-19T03:33:44;16.5;72.8
78455;SHT31;67751;51.986;5.696;2023-09-19T03:36:13;16.5;73.2
78455;SHT31;67751;51.986;5.696;2023-09-19T03:38:43;16.5;72.2
78455;SHT31;67751;51.986;5.696;2023-09-19T03:41:13;16.4;73.0
78455;SHT31;67751;51.986;5.696;2023-09-19T03:43:44;16.4;72.6
78455;SHT31;67751;51.986;5.696;2023-09-19T03:46:14;16.4;72.0
78455;SHT31;67751;51.986;5.696;2023-09-19T03:48:44;16.3;72.6
78455;SHT31;67751;51.986;5.696;2023-09-19T03:51:13;16.3;72.5
78455;SHT31;67751;51.986;5.696;2023-09-19T03:53:43;16.3;72.9
78455;SHT31;67751;51.986;5.696;2023-09-19T03:56:12;16.3;72.8
78455;SHT31;67751;51.986;5.696;2023-09-19T03:58:42;16.2;72.3
78455;SHT31;67751;51.986;5.696;2023-09-19T04:01:14;16.2;71.9
78455;SHT31;67751;51.986;5.696;2023-09-19T04:03:44;16.2;71.7
78455;SHT31;67751;51.986;5.696;2023-09-19T04:06:19;16.2;72.6
78455;SHT31;67751;51.986;5.696;2023-09-19T04:08:49;16.1;72.3
78455;SHT31;67751;51.986;5.696;2023-09-19T04:11:19;16.1;72.4
78455;SHT31;67751;51.986;5.696;2023-09-19T04:13:49;16.1;72.5
78455;SHT31;67751;51.986;5.696;2023-09-19T04:16:18;16.1;73.3
78455;SHT31;67751;51.986;5.696;2023-09-19T04:18:48;16.1;71.4
78455;SHT31;67751;51.986;5.696;2023-09-19T04:21:18;16.0;72.7
78455;SHT31;67751;51.986;5.696;2023-09-19T04:23:48;16.0;73.1
78455;SHT31;67751;51.986;5.696;2023-09-19T04:26:18;16.0;72.5
78455;SHT31;67751;51.986;5.696;2023-09-19T04:28:51;16.0;72.6
78455;SHT31;67751;51.986;5.696;2023-09-19T04:31:20;16.0;72.9
78455;SHT31;67751;51.986;5.696;2023-09-19T04:33:50;16.0;72.8
78455;SHT31;67751;51.986;5.696;2023-09-19T04:36:20;16.0;72.0
78455;SHT31;67751;51.986;5.696;2023-09-19T04:38:50;16.0;72.0
78455;SHT31;67751;51.986;5.696;2023-09-19T04:41:21;16.0;72.4
78455;SHT31;67751;51.986;5.696;2023-09-19T04:43:52;16.0;72.2
78455;SHT31;67751;51.986;5.696;2023-09-19T04:46:22;16.0;71.0
78455;SHT31;67751;51.986;5.696;2023-09-19T04:48:52;15.9;72.4
78455;SHT31;67751;51.986;5.696;2023-09-19T04:51:22;15.9;70.4
78455;SHT31;67751;51.986;5.696;2023-09-19T04:53:51;15.9;73.1
78455;SHT31;67751;51.986;5.696;2023-09-19T04:56:21;15.9;72.6
78455;SHT31;67751;51.986;5.696;2023-09-19T04:58:51;15.9;72.6
78455;SHT31;67751;51.986;5.696;2023-09-19T05:01:21;15.9;72.8
78455;SHT31;67751;51.986;5.696;2023-09-19T05:03:51;15.9;72.8
78455;SHT31;67751;51.986;5.696;2023-09-19T05:06:21;15.9;72.1
78455;SHT31;67751;51.986;5.696;2023-09-19T05:08:51;15.9;72.9
78455;SHT31;67751;51.986;5.696;2023-09-19T05:11:21;15.9;72.6
78455;SHT31;67751;51.986;5.696;2023-09-19T05:13:51;15.9;72.6
78455;SHT31;67751;51.986;5.696;2023-09-19T05:16:22;15.8;73.5
78455;SHT31;67751;51.986;5.696;2023-09-19T05:18:51;15.8;74.1
78455;SHT31;67751;51.986;5.696;2023-09-19T05:21:21;15.8;73.4
78455;SHT31;67751;51.986;5.696;2023-09-19T05:23:53;15.8;73.3
78455;SHT31;67751;51.986;5.696;2023-09-19T05:26:23;15.8;73.9
78455;SHT31;67751;51.986;5.696;2023-09-19T05:28:52;15.8;74.2
78455;SHT31;67751;51.986;5.696;2023-09-19T05:31:22;15.9;73.3
78455;SHT31;67751;51.986;5.696;2023-09-19T05:33:52;15.9;73.5
78455;SHT31;67751;51.986;5.696;2023-09-19T05:36:22;15.9;73.5
78455;SHT31;67751;51.986;5.696;2023-09-19T05:38:52;15.9;73.7
78455;SHT31;67751;51.986;5.696;2023-09-19T05:41:22;15.9;73.8
78455;SHT31;67751;51.986;5.696;2023-09-19T05:43:52;15.9;74.0
78455;SHT31;67751;51.986;5.696;2023-09-19T05:46:22;15.9;73.8
78455;SHT31;67751;51.986;5.696;2023-09-19T05:48:53;15.9;73.7
78455;SHT31;67751;51.986;5.696;2023-09-19T05:51:23;15.8;73.6
78455;SHT31;67751;51.986;5.696;2023-09-19T05:53:56;15.8;74.5
78455;SHT31;67751;51.986;5.696;2023-09-19T05:56:26;15.8;74.6
78455;SHT31;67751;51.986;5.696;2023-09-19T05:58:55;15.8;74.1
78455;SHT31;67751;51.986;5.696;2023-09-19T06:01:25;15.9;74.1
78455;SHT31;67751;51.986;5.696;2023-09-19T06:03:54;15.9;74.2
78455;SHT31;67751;51.986;5.696;2023-09-19T06:06:24;15.9;74.3
78455;SHT31;67751;51.986;5.696;2023-09-19T06:08:54;15.9;74.3
78455;SHT31;67751;51.986;5.696;2023-09-19T06:11:25;15.9;75.0
78455;SHT31;67751;51.986;5.696;2023-09-19T06:13:55;15.9;74.6
78455;SHT31;67751;51.986;5.696;2023-09-19T06:16:25;15.9;74.7
78455;SHT31;67751;51.986;5.696;2023-09-19T06:18:54;15.9;75.4
78455;SHT31;67751;51.986;5.696;2023-09-19T06:21:24;15.9;75.7
78455;SHT31;67751;51.986;5.696;2023-09-19T06:23:54;15.9;75.2
78455;SHT31;67751;51.986;5.696;2023-09-19T06:26:25;15.9;75.6
78455;SHT31;67751;51.986;5.696;2023-09-19T06:28:55;16.0;75.7
78455;SHT31;67751;51.986;5.696;2023-09-19T06:31:25;16.0;75.5
78455;SHT31;67751;51.986;5.696;2023-09-19T06:33:55;16.0;75.4
78455;SHT31;67751;51.986;5.696;2023-09-19T06:36:26;16.0;75.1
78455;SHT31;67751;51.986;5.696;2023-09-19T06:38:56;16.0;75.8
78455;SHT31;67751;51.986;5.696;2023-09-19T06:41:26;16.1;75.5
78455;SHT31;67751;51.986;5.696;2023-09-19T06:43:56;16.1;75.4
78455;SHT31;67751;51.986;5.696;2023-09-19T06:46:27;16.1;75.4
78455;SHT31;67751;51.986;5.696;2023-09-19T06:49:02;16.1;76.1
78455;SHT31;67751;51.986;5.696;2023-09-19T06:51:33;16.1;76.0
78455;SHT31;67751;51.986;5.696;2023-09-19T06:54:04;16.1;76.1
78455;SHT31;67751;51.986;5.696;2023-09-19T06:56:35;16.1;77.0
78455;SHT31;67751;51.986;5.696;2023-09-19T06:59:05;16.2;76.6
78455;SHT31;67751;51.986;5.696;2023-09-19T07:01:34;16.2;75.8
78455;SHT31;67751;51.986;5.696;2023-09-19T07:04:05;16.2;76.2
78455;SHT31;67751;51.986;5.696;2023-09-19T07:06:35;16.3;76.1
78455;SHT31;67751;51.986;5.696;2023-09-19T07:09:05;16.3;76.0
78455;SHT31;67751;51.986;5.696;2023-09-19T07:11:35;16.3;76.0
78455;SHT31;67751;51.986;5.696;2023-09-19T07:14:05;16.3;75.1
78455;SHT31;67751;51.986;5.696;2023-09-19T07:16:35;16.3;75.5
78455;SHT31;67751;51.986;5.696;2023-09-19T07:19:06;16.4;76.2
78455;SHT31;67751;51.986;5.696;2023-09-19T07:21:36;16.4;75.4
78455;SHT31;67751;51.986;5.696;2023-09-19T07:24:09;16.4;75.6
78455;SHT31;67751;51.986;5.696;2023-09-19T07:26:38;16.4;75.7
78455;SHT31;67751;51.986;5.696;2023-09-19T07:29:08;16.4;75.9
78455;SHT31;67751;51.986;5.696;2023-09-19T07:31:38;16.4;75.2
78455;SHT31;67751;51.986;5.696;2023-09-19T07:34:09;16.5;76.4
78455;SHT31;67751;51.986;5.696;2023-09-19T07:36:41;16.5;76.2
78455;SHT31;67751;51.986;5.696;2023-09-19T07:39:11;16.5;75.9
78455;SHT31;67751;51.986;5.696;2023-09-19T07:41:40;16.5;75.3
78455;SHT31;67751;51.986;5.696;2023-09-19T07:44:12;16.5;75.4
78455;SHT31;67751;51.986;5.696;2023-09-19T07:46:42;16.5;75.7
78455;SHT31;67751;51.986;5.696;2023-09-19T07:49:12;16.6;75.1
78455;SHT31;67751;51.986;5.696;2023-09-19T07:51:45;16.6;73.9
78455;SHT31;67751;51.986;5.696;2023-09-19T07:54:15;16.6;74.8
78455;SHT31;67751;51.986;5.696;2023-09-19T07:56:44;16.6;75.4
78455;SHT31;67751;51.986;5.696;2023-09-19T07:59:14;16.6;74.9
78455;SHT31;67751;51.986;5.696;2023-09-19T08:01:44;16.6;74.9
78455;SHT31;67751;51.986;5.696;2023-09-19T08:04:15;16.6;75.2
78455;SHT31;67751;51.986;5.696;2023-09-19T08:06:45;16.7;73.6
78455;SHT31;67751;51.986;5.696;2023-09-19T08:09:14;16.7;75.5
78455;SHT31;67751;51.986;5.696;2023-09-19T08:11:48;16.7;74.6
78455;SHT31;67751;51.986;5.696;2023-09-19T08:14:18;16.7;74.9
78455;SHT31;67751;51.986;5.696;2023-09-19T08:16:50;16.8;75.9
78455;SHT31;67751;51.986;5.696;2023-09-19T08:19:19;16.8;74.1
78455;SHT31;67751;51.986;5.696;2023-09-19T08:21:50;16.8;75.4
78455;SHT31;67751;51.986;5.696;2023-09-19T08:24:20;16.9;76.4
78455;SHT31;67751;51.986;5.696;2023-09-19T08:26:50;16.9;75.3
78455;SHT31;67751;51.986;5.696;2023-09-19T08:29:22;16.9;75.1
78455;SHT31;67751;51.986;5.696;2023-09-19T08:31:55;16.9;75.2
78455;SHT31;67751;51.986;5.696;2023-09-19T08:34:26;17.0;74.5
78455;SHT31;67751;51.986;5.696;2023-09-19T08:36:58;17.0;75.3
78455;SHT31;67751;51.986;5.696;2023-09-19T08:39:27;17.0;75.1
78455;SHT31;67751;51.986;5.696;2023-09-19T08:42:01;17.0;74.7
78455;SHT31;67751;51.986;5.696;2023-09-19T08:44:36;17.1;74.4
78455;SHT31;67751;51.986;5.696;2023-09-19T08:47:09;17.1;74.9
78455;SHT31;67751;51.986;5.696;2023-09-19T08:49:52;17.1;74.1
78455;SHT31;67751;51.986;5.696;2023-09-19T08:52:28;17.2;73.4
78455;SHT31;67751;51.986;5.696;2023-09-19T08:55:02;17.2;74.8
78455;SHT31;67751;51.986;5.696;2023-09-19T08:57:40;17.2;75.5
78455;SHT31;67751;51.986;5.696;2023-09-19T09:00:13;17.3;74.8
78455;SHT31;67751;51.986;5.696;2023-09-19T09:02:45;17.3;75.2
78455;SHT31;67751;51.986;5.696;2023-09-19T09:05:19;17.4;75.5
78455;SHT31;67751;51.986;5.696;2023-09-19T09:07:51;17.4;74.0
78455;SHT31;67751;51.986;5.696;2023-09-19T09:10:22;17.5;74.0
78455;SHT31;67751;51.986;5.696;2023-09-19T09:12:53;17.5;74.5
78455;SHT31;67751;51.986;5.696;2023-09-19T09:15:25;17.5;75.5
78455;SHT31;67751;51.986;5.696;2023-09-19T09:17:57;17.6;74.5
78455;SHT31;67751;51.986;5.696;2023-09-19T09:20:27;17.6;73.7
78455;SHT31;67751;51.986;5.696;2023-09-19T09:22:57;17.6;74.0
78455;SHT31;67751;51.986;5.696;2023-09-19T09:25:51;17.7;72.2
78455;SHT31;67751;51.986;5.696;2023-09-19T09:28:25;17.7;73.7
78455;SHT31;67751;51.986;5.696;2023-09-19T09:30:56;17.7;73.5
78455;SHT31;67751;51.986;5.696;2023-09-19T09:33:27;17.8;72.9
78455;SHT31;67751;51.986;5.696;2023-09-19T09:35:59;17.8;70.4
78455;SHT31;67751;51.986;5.696;2023-09-19T09:38:44;17.9;72.5
78455;SHT31;67751;51.986;5.696;2023-09-19T09:41:16;17.9;70.7
78455;SHT31;67751;51.986;5.696;2023-09-19T09:43:51;17.9;72.2
78455;SHT31;67751;51.986;5.696;2023-09-19T09:46:21;18.0;71.0
78455;SHT31;67751;51.986;5.696;2023-09-19T09:49:12;18.0;70.8
78455;SHT31;67751;51.986;5.696;2023-09-19T09:51:49;18.1;70.8
78455;SHT31;67751;51.986;5.696;2023-09-19T09:54:28;18.1;71.0
78455;SHT31;67751;51.986;5.696;2023-09-19T09:57:06;18.1;69.8
78455;SHT31;67751;51.986;5.696;2023-09-19T09:59:52;18.2;70.8
78455;SHT31;67751;51.986;5.696;2023-09-19T10:02:28;18.2;70.5
78455;SHT31;67751;51.986;5.696;2023-09-19T10:05:13;18.3;71.8
78455;SHT31;67751;51.986;5.696;2023-09-19T10:07:49;18.3;69.7
78455;SHT31;67751;51.986;5.696;2023-09-19T10:10:33;18.4;69.3
78455;SHT31;67751;51.986;5.696;2023-09-19T10:13:14;18.4;71.2
78455;SHT31;67751;51.986;5.696;2023-09-19T10:15:48;18.5;69.5
78455;SHT31;67751;51.986;5.696;2023-09-19T10:18:23;18.5;68.6
78455;SHT31;67751;51.986;5.696;2023-09-19T10:20:54;18.5;69.6
78455;SHT31;67751;51.986;5.696;2023-09-19T10:23:26;18.6;68.2
78455;SHT31;67751;51.986;5.696;2023-09-19T10:25:59;18.6;68.9
78455;SHT31;67751;51.986;5.696;2023-09-19T10:28:34;18.6;68.3
78455;SHT31;67751;51.986;5.696;2023-09-19T10:31:06;18.6;68.7
78455;SHT31;67751;51.986;5.696;2023-09-19T10:33:43;18.7;66.0
78455;SHT31;67751;51.986;5.696;2023-09-19T10:36:14;18.7;68.2
78455;SHT31;67751;51.986;5.696;2023-09-19T10:38:45;18.7;67.8
78455;SHT31;67751;51.986;5.696;2023-09-19T10:41:21;18.7;68.2
78455;SHT31;67751;51.986;5.696;2023-09-19T10:43:54;18.8;68.4
78455;SHT31;67751;51.986;5.696;2023-09-19T10:46:27;18.8;68.3
78455;SHT31;67751;51.986;5.696;2023-09-19T10:49:00;18.8;67.7
78455;SHT31;67751;51.986;5.696;2023-09-19T10:51:39;18.8;66.8
78455;SHT31;67751;51.986;5.696;2023-09-19T10:54:13;18.8;66.1
78455;SHT31;67751;51.986;5.696;2023-09-19T10:56:47;18.8;67.7
78455;SHT31;67751;51.986;5.696;2023-09-19T10:59:21;18.9;66.7
78455;SHT31;67751;51.986;5.696;2023-09-19T11:01:54;18.9;66.7
78455;SHT31;67751;51.986;5.696;2023-09-19T11:04:27;18.9;65.8
78455;SHT31;67751;51.986;5.696;2023-09-19T11:07:02;18.9;67.1
78455;SHT31;67751;51.986;5.696;2023-09-19T11:09:46;18.9;67.7
78455;SHT31;67751;51.986;5.696;2023-09-19T11:12:51;18.9;67.6
78455;SHT31;67751;51.986;5.696;2023-09-19T11:16:23;18.9;66.5
78455;SHT31;67751;51.986;5.696;2023-09-19T11:18:53;19.0;67.0
78455;SHT31;67751;51.986;5.696;2023-09-19T11:21:40;19.0;68.2
78455;SHT31;67751;51.986;5.696;2023-09-19T11:26:39;19.0;67.2
78455;SHT31;67751;51.986;5.696;2023-09-19T11:29:26;19.1;68.2
78455;SHT31;67751;51.986;5.696;2023-09-19T11:31:57;19.1;68.4
78455;SHT31;67751;51.986;5.696;2023-09-19T11:34:45;19.2;66.0
78455;SHT31;67751;51.986;5.696;2023-09-19T11:42:45;19.2;67.1
78455;SHT31;67751;51.986;5.696;2023-09-19T11:48:29;19.3;66.8
78455;SHT31;67751;51.986;5.696;2023-09-19T11:51:16;19.4;68.0
78455;SHT31;67751;51.986;5.696;2023-09-19T11:53:51;19.4;65.8
78455;SHT31;67751;51.986;5.696;2023-09-19T11:56:23;19.4;65.8
78455;SHT31;67751;51.986;5.696;2023-09-19T11:58:56;19.5;66.9
78455;SHT31;67751;51.986;5.696;2023-09-19T12:01:30;19.5;66.7
78455;SHT31;67751;51.986;5.696;2023-09-19T12:04:02;19.6;67.1
78455;SHT31;67751;51.986;5.696;2023-09-19T12:06:32;19.6;65.8
78455;SHT31;67751;51.986;5.696;2023-09-19T12:09:08;19.6;65.0
78455;SHT31;67751;51.986;5.696;2023-09-19T12:11:44;19.7;65.2
78455;SHT31;67751;51.986;5.696;2023-09-19T12:14:23;19.7;64.3
78455;SHT31;67751;51.986;5.696;2023-09-19T12:16:56;19.8;65.0
78455;SHT31;67751;51.986;5.696;2023-09-19T12:19:28;19.8;64.4
78455;SHT31;67751;51.986;5.696;2023-09-19T12:21:59;19.8;63.3
78455;SHT31;67751;51.986;5.696;2023-09-19T12:24:32;19.8;62.0
78455;SHT31;67751;51.986;5.696;2023-09-19T12:27:06;19.8;62.5
78455;SHT31;67751;51.986;5.696;2023-09-19T12:29:47;19.8;61.4
78455;SHT31;67751;51.986;5.696;2023-09-19T12:32:35;19.8;61.7
78455;SHT31;67751;51.986;5.696;2023-09-19T12:35:08;19.8;63.3
78455;SHT31;67751;51.986;5.696;2023-09-19T12:37:43;19.8;63.3
78455;SHT31;67751;51.986;5.696;2023-09-19T12:40:16;19.8;63.9
78455;SHT31;67751;51.986;5.696;2023-09-19T12:42:50;19.8;62.9
78455;SHT31;67751;51.986;5.696;2023-09-19T12:45:21;19.7;61.6
78455;SHT31;67751;51.986;5.696;2023-09-19T12:48:19;19.7;63.1
78455;SHT31;67751;51.986;5.696;2023-09-19T12:51:07;19.7;62.1
78455;SHT31;67751;51.986;5.696;2023-09-19T12:53:41;19.7;63.1
78455;SHT31;67751;51.986;5.696;2023-09-19T12:56:15;19.6;62.9
78455;SHT31;67751;51.986;5.696;2023-09-19T12:58:53;19.6;63.0
78455;SHT31;67751;51.986;5.696;2023-09-19T13:01:24;19.6;63.4
78455;SHT31;67751;51.986;5.696;2023-09-19T13:04:19;19.6;62.9
78455;SHT31;67751;51.986;5.696;2023-09-19T13:06:54;19.6;63.8
78455;SHT31;67751;51.986;5.696;2023-09-19T13:09:28;19.6;63.0
78455;SHT31;67751;51.986;5.696;2023-09-19T13:12:02;19.6;64.4
78455;SHT31;67751;51.986;5.696;2023-09-19T13:14:33;19.5;63.5
78455;SHT31;67751;51.986;5.696;2023-09-19T13:17:09;19.5;63.4
78455;SHT31;67751;51.986;5.696;2023-09-19T13:19:46;19.5;64.1
78455;SHT31;67751;51.986;5.696;2023-09-19T13:22:39;19.5;64.4
78455;SHT31;67751;51.986;5.696;2023-09-19T13:25:13;19.5;63.8
78455;SHT31;67751;51.986;5.696;2023-09-19T13:27:46;19.5;63.5
78455;SHT31;67751;51.986;5.696;2023-09-19T13:30:20;19.5;64.3
78455;SHT31;67751;51.986;5.696;2023-09-19T13:32:52;19.5;63.9
78455;SHT31;67751;51.986;5.696;2023-09-19T13:35:24;19.5;64.3
78455;SHT31;67751;51.986;5.696;2023-09-19T13:37:54;19.5;64.8
78455;SHT31;67751;51.986;5.696;2023-09-19T13:40:23;19.5;63.0
78455;SHT31;67751;51.986;5.696;2023-09-19T13:42:58;19.5;63.8
78455;SHT31;67751;51.986;5.696;2023-09-19T13:45:28;19.5;64.6
78455;SHT31;67751;51.986;5.696;2023-09-19T13:47:58;19.5;64.0
78455;SHT31;67751;51.986;5.696;2023-09-19T13:50:28;19.5;65.0
78455;SHT31;67751;51.986;5.696;2023-09-19T13:52:59;19.5;65.9
78455;SHT31;67751;51.986;5.696;2023-09-19T13:55:29;19.5;63.8
78455;SHT31;67751;51.986;5.696;2023-09-19T13:58:01;19.5;65.0
78455;SHT31;67751;51.986;5.696;2023-09-19T14:00:34;19.6;65.4
78455;SHT31;67751;51.986;5.696;2023-09-19T14:03:04;19.6;66.5
78455;SHT31;67751;51.986;5.696;2023-09-19T14:05:34;19.6;65.4
78455;SHT31;67751;51.986;5.696;2023-09-19T14:08:04;19.6;64.7
78455;SHT31;67751;51.986;5.696;2023-09-19T14:10:34;19.6;64.2
78455;SHT31;67751;51.986;5.696;2023-09-19T14:13:04;19.6;65.2
78455;SHT31;67751;51.986;5.696;2023-09-19T14:15:36;19.7;63.7
78455;SHT31;67751;51.986;5.696;2023-09-19T14:18:06;19.7;65.0
78455;SHT31;67751;51.986;5.696;2023-09-19T14:20:38;19.7;63.1
78455;SHT31;67751;51.986;5.696;2023-09-19T14:23:09;19.7;64.7
78455;SHT31;67751;51.986;5.696;2023-09-19T14:25:41;19.7;65.1
78455;SHT31;67751;51.986;5.696;2023-09-19T14:28:11;19.8;64.9
78455;SHT31;67751;51.986;5.696;2023-09-19T14:30:40;19.8;64.2
78455;SHT31;67751;51.986;5.696;2023-09-19T14:33:10;19.8;64.8
78455;SHT31;67751;51.986;5.696;2023-09-19T14:35:42;19.8;65.2
78455;SHT31;67751;51.986;5.696;2023-09-19T14:38:12;19.8;64.6
78455;SHT31;67751;51.986;5.696;2023-09-19T14:40:41;19.8;64.9
78455;SHT31;67751;51.986;5.696;2023-09-19T14:43:11;19.8;65.9
78455;SHT31;67751;51.986;5.696;2023-09-19T14:45:40;19.9;64.8
78455;SHT31;67751;51.986;5.696;2023-09-19T14:48:10;19.9;65.2
78455;SHT31;67751;51.986;5.696;2023-09-19T14:50:40;19.9;65.5
78455;SHT31;67751;51.986;5.696;2023-09-19T14:53:11;19.9;64.1
78455;SHT31;67751;51.986;5.696;2023-09-19T14:55:41;19.9;65.0
78455;SHT31;67751;51.986;5.696;2023-09-19T14:58:12;19.8;64.7
78455;SHT31;67751;51.986;5.696;2023-09-19T15:00:43;19.9;63.4
78455;SHT31;67751;51.986;5.696;2023-09-19T15:03:13;19.8;64.2
78455;SHT31;67751;51.986;5.696;2023-09-19T15:05:43;19.8;64.2
78455;SHT31;67751;51.986;5.696;2023-09-19T15:08:12;19.8;64.6
78455;SHT31;67751;51.986;5.696;2023-09-19T15:10:51;19.8;65.2
78455;SHT31;67751;51.986;5.696;2023-09-19T15:13:23;19.8;65.0
78455;SHT31;67751;51.986;5.696;2023-09-19T15:16:00;19.8;64.3
78455;SHT31;67751;51.986;5.696;2023-09-19T15:18:31;19.8;64.9
78455;SHT31;67751;51.986;5.696;2023-09-19T15:21:02;19.8;63.7
78455;SHT31;67751;51.986;5.696;2023-09-19T15:23:32;19.8;64.5
78455;SHT31;67751;51.986;5.696;2023-09-19T15:26:15;19.8;64.8
78455;SHT31;67751;51.986;5.696;2023-09-19T15:28:48;19.8;63.8
78455;SHT31;67751;51.986;5.696;2023-09-19T15:31:18;19.8;64.4
78455;SHT31;67751;51.986;5.696;2023-09-19T15:33:48;19.7;64.2
78455;SHT31;67751;51.986;5.696;2023-09-19T15:36:18;19.7;64.6
78455;SHT31;67751;51.986;5.696;2023-09-19T15:39:02;19.7;64.5
78455;SHT31;67751;51.986;5.696;2023-09-19T15:41:34;19.7;65.2
78455;SHT31;67751;51.986;5.696;2023-09-19T15:44:15;19.7;65.5
78455;SHT31;67751;51.986;5.696;2023-09-19T15:46:45;19.7;65.1
78455;SHT31;67751;51.986;5.696;2023-09-19T15:49:15;19.7;64.1
78455;SHT31;67751;51.986;5.696;2023-09-19T15:51:45;19.7;64.3
78455;SHT31;67751;51.986;5.696;2023-09-19T15:54:16;19.7;64.4
78455;SHT31;67751;51.986;5.696;2023-09-19T15:56:47;19.7;64.8
78455;SHT31;67751;51.986;5.696;2023-09-19T15:59:18;19.7;64.8
78455;SHT31;67751;51.986;5.696;2023-09-19T16:01:50;19.7;64.1
78455;SHT31;67751;51.986;5.696;2023-09-19T16:04:20;19.7;64.1
78455;SHT31;67751;51.986;5.696;2023-09-19T16:06:51;19.7;64.5
78455;SHT31;67751;51.986;5.696;2023-09-19T16:09:20;19.7;64.8
78455;SHT31;67751;51.986;5.696;2023-09-19T16:11:50;19.7;64.1
78455;SHT31;67751;51.986;5.696;2023-09-19T16:14:20;19.7;65.4
78455;SHT31;67751;51.986;5.696;2023-09-19T16:16:49;19.7;64.8
78455;SHT31;67751;51.986;5.696;2023-09-19T16:19:19;19.7;65.7
78455;SHT31;67751;51.986;5.696;2023-09-19T16:21:49;19.7;65.4
78455;SHT31;67751;51.986;5.696;2023-09-19T16:24:18;19.6;64.5
78455;SHT31;67751;51.986;5.696;2023-09-19T16:26:48;19.6;65.7
78455;SHT31;67751;51.986;5.696;2023-09-19T16:29:19;19.6;65.1
78455;SHT31;67751;51.986;5.696;2023-09-19T16:31:51;19.6;65.4
78455;SHT31;67751;51.986;5.696;2023-09-19T16:34:22;19.6;64.6
78455;SHT31;67751;51.986;5.696;2023-09-19T16:36:51;19.6;64.9
78455;SHT31;67751;51.986;5.696;2023-09-19T16:39:21;19.6;65.3
78455;SHT31;67751;51.986;5.696;2023-09-19T16:41:53;19.6;64.8
78455;SHT31;67751;51.986;5.696;2023-09-19T16:44:22;19.6;65.0
78455;SHT31;67751;51.986;5.696;2023-09-19T16:46:52;19.6;65.6
78455;SHT31;67751;51.986;5.696;2023-09-19T16:49:22;19.6;65.2